createdAt,value
2022-08-12T00:01:12.622Z,101744.78
2022-08-12T00:03:58.772Z,101744.81
2022-08-12T00:06:46.462Z,101753.69
2022-08-12T00:09:32.456Z,101759.25
2022-08-12T00:12:18.404Z,101760.28
2022-08-12T00:15:04.636Z,101762.22
2022-08-12T00:17:51.877Z,101746.16
2022-08-12T00:20:37.987Z,101750.56
2022-08-12T00:23:24.148Z,101750.59
2022-08-12T00:26:22.495Z,101751.47
2022-08-12T00:29:11.605Z,101755.94
2022-08-12T00:31:58.646Z,101741.69
2022-08-12T00:34:49.124Z,101756.00
2022-08-12T00:37:39.243Z,101762.47
2022-08-12T00:40:27.552Z,101755.44
2022-08-12T00:42:56.092Z,101764.44
2022-08-12T00:45:23.522Z,101756.47
2022-08-12T00:47:53.325Z,101759.22
2022-08-12T00:50:23.248Z,101753.00
2022-08-12T00:52:52.882Z,101747.59
2022-08-12T00:55:20.514Z,101753.09
2022-08-12T00:57:50.836Z,101753.13
2022-08-12T01:00:24.481Z,101755.84
2022-08-12T01:02:55.676Z,101748.59
2022-08-12T01:05:43.689Z,101747.78
2022-08-12T01:08:29.438Z,101755.97
2022-08-12T01:11:16.600Z,101752.34
2022-08-12T01:13:50.929Z,101755.16
2022-08-12T01:16:23.258Z,101751.53
2022-08-12T01:18:53.083Z,101751.56
2022-08-12T01:21:44.153Z,101752.44
2022-08-12T01:24:49.061Z,101752.44
2022-08-12T01:27:18.484Z,101756.94
2022-08-12T01:29:48.959Z,101751.63
2022-08-12T01:32:19.000Z,101759.72
2022-08-12T01:35:14.041Z,101757.88
2022-08-12T01:37:56.631Z,101752.53
2022-08-12T01:40:37.934Z,101752.63
2022-08-12T01:43:10.109Z,101748.09
2022-08-12T01:46:08.570Z,101741.03
2022-08-12T01:48:50.459Z,101733.88
2022-08-12T01:52:21.022Z,101739.28
2022-08-12T01:54:38.633Z,101737.41
2022-08-12T01:57:06.053Z,101737.44
2022-08-12T01:59:47.433Z,101734.84
2022-08-12T02:02:22.275Z,101734.03
2022-08-12T02:05:43.469Z,101732.22
2022-08-12T02:08:41.520Z,101727.84
2022-08-12T02:11:19.086Z,101728.78
2022-08-12T02:13:50.846Z,101723.53
2022-08-12T02:16:36.437Z,101722.69
2022-08-12T02:19:38.799Z,101718.22
2022-08-12T02:22:17.461Z,101716.50
2022-08-12T02:24:49.086Z,101722.84
2022-08-12T02:27:19.731Z,101721.84
2022-08-12T02:29:48.270Z,101717.38
2022-08-12T02:32:16.101Z,101725.41
2022-08-12T02:34:45.135Z,101714.84
2022-08-12T02:37:15.631Z,101717.59
2022-08-12T02:39:49.614Z,101710.44
2022-08-12T02:42:20.656Z,101719.34
2022-08-12T02:44:52.335Z,101716.75
2022-08-12T02:47:59.204Z,101711.47
2022-08-12T02:50:14.717Z,101714.16
2022-08-12T02:52:43.763Z,101712.38
2022-08-12T02:55:34.083Z,101707.09
2022-08-12T02:58:09.220Z,101718.72
2022-08-12T03:00:41.606Z,101712.47
2022-08-12T03:03:12.983Z,101701.81
2022-08-12T03:06:13.311Z,101708.97
2022-08-12T03:08:42.334Z,101708.22
2022-08-12T03:11:42.798Z,101710.84
2022-08-12T03:14:18.125Z,101702.91
2022-08-12T03:16:50.345Z,101704.75
2022-08-12T03:19:21.803Z,101704.78
2022-08-12T03:22:09.105Z,101698.56
2022-08-12T03:24:42.378Z,101694.13
2022-08-12T03:27:14.385Z,101695.94
2022-08-12T03:29:50.270Z,101700.44
2022-08-12T03:32:35.627Z,101696.00
2022-08-12T03:35:07.906Z,101704.91
2022-08-12T03:37:37.329Z,101709.34
2022-08-12T03:40:05.384Z,101705.91
2022-08-12T03:42:40.866Z,101710.34
2022-08-12T03:45:32.036Z,101718.34
2022-08-12T03:48:32.673Z,101711.19
2022-08-12T03:51:19.007Z,101704.97
2022-08-12T03:54:05.148Z,101717.53
2022-08-12T03:56:52.937Z,101713.13
2022-08-12T03:59:38.726Z,101718.50
2022-08-12T04:02:07.990Z,101711.50
2022-08-12T04:04:36.691Z,101711.47
2022-08-12T04:07:09.260Z,101715.94
2022-08-12T04:09:40.364Z,101714.19
2022-08-12T04:12:40.122Z,101714.13
2022-08-12T04:15:18.603Z,101706.13
2022-08-12T04:18:06.896Z,101696.44
2022-08-12T04:20:36.605Z,101709.75
2022-08-12T04:23:05.514Z,101709.78
2022-08-12T04:25:37.514Z,101707.13
2022-08-12T04:28:13.581Z,101703.56
2022-08-12T04:30:42.013Z,101699.16
2022-08-12T04:33:10.147Z,101711.66
2022-08-12T04:35:38.707Z,101713.47
2022-08-12T04:38:07.503Z,101718.78
2022-08-12T04:40:39.692Z,101717.88
2022-08-12T04:43:54.505Z,101711.66
2022-08-12T04:45:55.913Z,101709.88
2022-08-12T04:48:23.299Z,101716.97
2022-08-12T04:50:50.911Z,101718.78
2022-08-12T04:53:18.601Z,101725.91
2022-08-12T04:55:47.861Z,101722.31
2022-08-12T04:58:15.244Z,101721.41
2022-08-12T05:00:57.543Z,101727.63
2022-08-12T05:03:28.099Z,101721.41
2022-08-12T05:05:59.188Z,101724.94
2022-08-12T05:08:26.955Z,101730.25
2022-08-12T05:10:54.566Z,101716.03
2022-08-12T05:13:32.013Z,101721.34
2022-08-12T05:16:04.858Z,101724.81
2022-08-12T05:18:35.446Z,101723.94
2022-08-12T05:21:08.384Z,101733.59
2022-08-12T05:23:38.296Z,101721.16
2022-08-12T05:26:06.249Z,101729.16
2022-08-12T05:28:34.547Z,101732.72
2022-08-12T05:31:02.612Z,101735.38
2022-08-12T05:33:39.572Z,101742.41
2022-08-12T05:36:08.590Z,101739.69
2022-08-12T05:38:59.913Z,101737.00
2022-08-12T05:41:32.839Z,101742.28
2022-08-12T05:44:06.770Z,101742.16
2022-08-12T05:46:36.012Z,101740.41
2022-08-12T05:49:04.790Z,101739.50
2022-08-12T05:51:40.271Z,101739.38
2022-08-12T05:54:10.439Z,101740.09
2022-08-12T05:56:38.055Z,101746.25
2022-08-12T05:59:07.665Z,101749.53
2022-08-12T06:02:12.395Z,101737.03
2022-08-12T06:04:23.620Z,101742.31
2022-08-12T06:06:53.560Z,101740.44
2022-08-12T06:09:22.851Z,101740.38
2022-08-12T06:12:04.710Z,101744.69
2022-08-12T06:14:36.761Z,101751.53
2022-08-12T06:17:05.980Z,101746.09
2022-08-12T06:20:22.810Z,101747.72
2022-08-12T06:22:20.825Z,101747.59
2022-08-12T06:24:49.847Z,101747.38
2022-08-12T06:27:19.065Z,101740.16
2022-08-12T06:30:09.765Z,101745.31
2022-08-12T06:32:34.586Z,101741.41
2022-08-12T06:35:25.566Z,101740.34
2022-08-12T06:37:56.446Z,101737.38
2022-08-12T06:40:44.189Z,101740.75
2022-08-12T06:43:13.181Z,101737.78
2022-08-12T06:45:49.233Z,101735.97
2022-08-12T06:48:17.384Z,101739.31
2022-08-12T06:50:46.199Z,101738.00
2022-08-12T06:53:13.595Z,101737.00
2022-08-12T06:55:57.679Z,101742.84
2022-08-12T06:58:26.755Z,101734.78
2022-08-12T07:00:56.045Z,101738.16
2022-08-12T07:03:30.161Z,101738.09
2022-08-12T07:05:58.531Z,101728.88
2022-08-12T07:08:29.318Z,101734.69
2022-08-12T07:11:09.370Z,101730.69
2022-08-12T07:14:02.442Z,101729.56
2022-08-12T07:16:49.495Z,101728.34
2022-08-12T07:19:17.325Z,101727.84
2022-08-12T07:22:00.095Z,101727.88
2022-08-12T07:24:30.579Z,101736.38
2022-08-12T07:26:58.264Z,101735.31
2022-08-12T07:29:58.035Z,101734.03
2022-08-12T07:32:13.524Z,101733.03
2022-08-12T07:34:42.350Z,101726.78
2022-08-12T07:37:09.711Z,101733.50
2022-08-12T07:39:37.281Z,101735.09
2022-08-12T07:42:18.608Z,101727.72
2022-08-12T07:44:47.223Z,101742.31
2022-08-12T07:47:19.106Z,101737.69
2022-08-12T07:50:05.874Z,101730.03
2022-08-12T07:52:38.510Z,101739.13
2022-08-12T07:55:06.751Z,101742.91
2022-08-12T07:57:35.313Z,101734.47
2022-08-12T08:00:05.623Z,101732.91
2022-08-12T08:02:35.814Z,101736.44
2022-08-12T08:05:04.476Z,101731.38
2022-08-12T08:07:31.870Z,101732.59
2022-08-12T08:10:05.050Z,101738.66
2022-08-12T08:12:51.087Z,101729.47
2022-08-12T08:15:20.201Z,101733.91
2022-08-12T08:18:06.453Z,101731.28
2022-08-12T08:20:38.066Z,101729.84
2022-08-12T08:23:15.358Z,101736.19
2022-08-12T08:25:43.565Z,101742.50
2022-08-12T08:28:13.791Z,101731.38
2022-08-12T08:30:44.397Z,101733.44
2022-08-12T08:33:23.580Z,101728.56
2022-08-12T08:36:02.948Z,101726.84
2022-08-12T08:38:32.789Z,101726.41
2022-08-12T08:42:16.226Z,101729.59
2022-08-12T08:44:11.420Z,101732.00
2022-08-12T08:46:40.479Z,101733.13
2022-08-12T08:49:08.613Z,101732.72
2022-08-12T08:51:36.523Z,101730.97
2022-08-12T08:54:04.186Z,101737.03
2022-08-12T08:56:31.580Z,101731.38
2022-08-12T08:58:59.590Z,101736.75
2022-08-12T09:01:37.329Z,101736.13
2022-08-12T09:05:12.984Z,101736.84
2022-08-12T09:06:56.719Z,101735.97
2022-08-12T09:09:24.455Z,101735.94
2022-08-12T09:12:23.735Z,101729.34
2022-08-12T09:14:55.118Z,101734.63
2022-08-12T09:17:22.641Z,101725.25
2022-08-12T09:19:57.317Z,101723.25
2022-08-12T09:22:29.167Z,101720.72
2022-08-12T09:24:59.888Z,101723.81
2022-08-12T09:30:16.633Z,101716.81
2022-08-12T09:33:05.330Z,101717.19
2022-08-12T09:35:44.227Z,101718.63
2022-08-12T09:38:28.109Z,101715.97
2022-08-12T09:42:07.395Z,101711.72
2022-08-12T09:44:05.782Z,101713.09
2022-08-12T09:46:34.474Z,101704.81
2022-08-12T09:49:04.225Z,101736.19
2022-08-12T09:51:44.119Z,101736.31
2022-08-12T09:54:33.257Z,101727.50
2022-08-12T09:58:07.953Z,101726.50
2022-08-12T10:00:17.721Z,101720.31
2022-08-12T10:02:42.516Z,101714.72
2022-08-12T10:05:17.724Z,101708.88
2022-08-12T10:07:47.579Z,101702.78
2022-08-12T10:10:22.649Z,101703.19
2022-08-12T10:13:35.843Z,101712.41
2022-08-12T10:16:06.431Z,101708.97
2022-08-12T10:18:37.361Z,101704.66
2022-08-12T10:21:36.181Z,101699.50
2022-08-12T10:24:09.453Z,101703.41
2022-08-12T10:26:57.773Z,101698.91
2022-08-12T10:30:38.976Z,101695.25
2022-08-12T10:32:42.926Z,101687.34
2022-08-12T10:35:13.508Z,101681.19
2022-08-12T10:38:34.847Z,101681.28
2022-08-12T10:40:32.980Z,101674.13
2022-08-12T10:43:20.030Z,101676.75
2022-08-12T10:45:58.347Z,101677.75
2022-08-12T10:48:33.667Z,101668.91
2022-08-12T10:52:04.435Z,101678.91
2022-08-12T10:53:54.277Z,101671.81
2022-08-12T10:56:34.698Z,101664.66
2022-08-12T10:59:05.308Z,101663.75
2022-08-12T11:04:17.287Z,101661.19
2022-08-12T11:04:35.430Z,101661.19
2022-08-12T11:08:36.920Z,101662.06
2022-08-12T11:10:01.797Z,101653.16
2022-08-12T11:12:56.675Z,101652.22
2022-08-12T11:15:33.427Z,101648.81
2022-08-12T11:18:18.393Z,101647.13
2022-08-12T11:20:48.523Z,101635.47
2022-08-12T11:23:25.149Z,101644.69
2022-08-12T11:26:06.208Z,101635.44
2022-08-12T11:28:37.130Z,101630.16
2022-08-12T11:31:14.190Z,101634.50
2022-08-12T11:34:04.208Z,101628.22
2022-08-12T11:36:33.503Z,101638.19
2022-08-12T11:39:07.810Z,101631.91
2022-08-12T11:41:40.322Z,101626.47
2022-08-12T11:44:36.519Z,101624.66
2022-08-12T11:46:58.977Z,101629.22
2022-08-12T11:49:32.330Z,101618.41
2022-08-12T11:52:04.010Z,101615.59
2022-08-12T11:54:32.109Z,101612.16
2022-08-12T11:57:03.007Z,101610.19
2022-08-12T12:02:37.152Z,101612.13
2022-08-12T12:05:05.271Z,101611.34
2022-08-12T12:08:35.904Z,101610.94
2022-08-12T12:10:21.167Z,101595.50
2022-08-12T12:12:49.778Z,101593.34
2022-08-12T12:15:25.460Z,101595.22
2022-08-12T12:18:06.106Z,101583.81
2022-08-12T12:20:35.389Z,101588.88
2022-08-12T12:23:03.996Z,101591.56
2022-08-12T12:26:06.499Z,101588.47
2022-08-12T12:28:35.268Z,101576.66
2022-08-12T12:31:14.768Z,101582.06
2022-08-12T12:33:57.691Z,101574.81
2022-08-12T12:36:30.157Z,101582.25
2022-08-12T12:39:00.039Z,101569.69
2022-08-12T12:42:43.820Z,101572.25
2022-08-12T12:44:25.935Z,101578.66
2022-08-12T12:47:03.505Z,101572.66
2022-08-12T12:49:30.853Z,101573.47
2022-08-12T12:52:19.601Z,101570.16
2022-08-12T12:54:52.778Z,101573.75
2022-08-12T12:57:35.811Z,101568.47
2022-08-12T13:00:17.383Z,101564.97
2022-08-12T13:02:58.024Z,101567.19
2022-08-12T13:05:28.279Z,101562.53
2022-08-12T13:08:01.357Z,101557.00
2022-08-12T13:10:36.867Z,101560.63
2022-08-12T13:14:07.707Z,101555.41
2022-08-12T13:15:54.059Z,101560.72
2022-08-12T13:18:30.901Z,101556.13
2022-08-12T13:20:59.342Z,101556.06
2022-08-12T13:23:36.779Z,101552.47
2022-08-12T13:26:05.763Z,101548.69
2022-08-12T13:28:33.500Z,101551.47
2022-08-12T13:31:01.748Z,101547.88
2022-08-12T13:34:33.551Z,101544.84
2022-08-12T13:36:20.412Z,101539.75
2022-08-12T13:38:54.473Z,101547.59
2022-08-12T13:41:34.116Z,101542.69
2022-08-12T13:44:03.402Z,101539.03
2022-08-12T13:46:31.326Z,101542.09
2022-08-12T13:48:58.901Z,101540.13
2022-08-12T13:51:26.986Z,101539.38
2022-08-12T13:54:11.639Z,101542.97
2022-08-12T13:56:41.435Z,101535.66
2022-08-12T13:59:20.443Z,101530.94
2022-08-12T14:01:54.302Z,101530.00
2022-08-12T14:04:24.343Z,101527.25
2022-08-12T14:06:54.339Z,101529.81
2022-08-12T14:09:22.013Z,101524.34
2022-08-12T14:11:59.104Z,101526.25
2022-08-12T14:14:31.804Z,101524.22
2022-08-12T14:17:10.401Z,101524.34
2022-08-12T14:20:01.337Z,101519.97
2022-08-12T14:22:30.390Z,101524.06
2022-08-12T14:24:59.194Z,101511.38
2022-08-12T14:28:03.865Z,101509.47
2022-08-12T14:30:28.770Z,101503.19
2022-08-12T14:32:57.710Z,101499.69
2022-08-12T14:35:25.119Z,101499.34
2022-08-12T14:37:55.899Z,101503.53
2022-08-12T14:40:30.233Z,101491.88
2022-08-12T14:43:02.705Z,101490.91
2022-08-12T14:45:44.217Z,101498.13
2022-08-12T14:48:18.727Z,101495.38
2022-08-12T14:51:02.821Z,101485.28
2022-08-12T14:59:56.295Z,101489.19
2022-08-12T15:02:20.937Z,101492.97
2022-08-12T15:04:56.193Z,101487.50
2022-08-12T15:07:33.746Z,101484.56
2022-08-12T15:10:13.392Z,101485.19
2022-08-12T15:12:41.081Z,101484.81
2022-08-12T15:15:10.555Z,101478.59
2022-08-12T15:17:40.156Z,101478.69
2022-08-12T15:20:31.791Z,101479.47
2022-08-12T15:22:57.901Z,101482.19
2022-08-12T15:25:27.130Z,101469.53
2022-08-12T15:28:04.683Z,101479.47
2022-08-12T15:30:34.706Z,101472.47
2022-08-12T15:33:12.866Z,101466.25
2022-08-12T15:35:50.167Z,101463.41
2022-08-12T15:38:24.863Z,101458.16
2022-08-12T15:40:54.163Z,101459.94
2022-08-12T15:43:35.301Z,101464.28
2022-08-12T15:46:15.019Z,101415.50
2022-08-12T15:48:46.649Z,101411.13
2022-08-12T15:51:58.186Z,101405.84
2022-08-12T15:54:34.369Z,101410.09
2022-08-12T15:57:05.825Z,101414.25
2022-08-12T16:00:00.630Z,101406.03
2022-08-12T16:02:26.837Z,101406.03
2022-08-12T16:04:55.179Z,101403.81
2022-08-12T16:07:25.889Z,101407.53
2022-08-12T16:10:07.074Z,101407.06
2022-08-12T16:12:43.340Z,101411.47
2022-08-12T16:15:13.632Z,101410.19
2022-08-12T16:18:18.068Z,101400.84
2022-08-12T16:20:34.025Z,101401.19
2022-08-12T16:23:51.102Z,101397.13
2022-08-12T16:26:06.093Z,101397.56
2022-08-12T16:28:42.732Z,101385.84
2022-08-12T16:31:18.674Z,101390.78
2022-08-12T16:33:59.285Z,101382.50
2022-08-12T16:36:29.346Z,101387.72
2022-08-12T16:38:56.851Z,101387.16
2022-08-12T16:41:24.174Z,101387.00
2022-08-12T16:43:53.464Z,101374.47
2022-08-12T16:46:33.398Z,101381.03
2022-08-12T16:49:04.162Z,101380.66
2022-08-12T16:51:40.192Z,101374.91
2022-08-12T16:54:13.983Z,101376.53
2022-08-12T16:56:50.840Z,101372.41
2022-08-12T16:59:22.897Z,101370.88
2022-08-12T17:01:51.809Z,101378.31
2022-08-12T17:04:19.636Z,101374.72
2022-08-12T17:06:52.625Z,101371.88
2022-08-12T17:09:19.962Z,101373.50
2022-08-12T17:11:49.614Z,101370.78
2022-08-12T17:14:20.273Z,101372.75
2022-08-12T17:16:52.115Z,101382.78
2022-08-12T17:19:20.625Z,101385.19
2022-08-12T17:22:09.844Z,101383.66
2022-08-12T17:24:44.119Z,101383.84
2022-08-12T17:27:23.296Z,101383.84
2022-08-12T17:30:01.192Z,101383.19
2022-08-12T17:32:35.047Z,101381.31
2022-08-12T17:35:21.607Z,101377.72
2022-08-12T17:37:48.802Z,101392.09
2022-08-12T17:40:35.255Z,101380.66
2022-08-12T17:43:57.756Z,101387.50
2022-08-12T17:45:59.032Z,101375.28
2022-08-12T17:48:34.822Z,101380.69
2022-08-12T17:51:16.007Z,101379.91
2022-08-12T17:54:11.808Z,101372.78
2022-08-12T17:56:37.270Z,101374.50
2022-08-12T17:59:07.391Z,101373.84
2022-08-12T18:01:36.530Z,101370.97
2022-08-12T18:04:22.888Z,101373.50
2022-08-12T18:06:55.865Z,101375.78
2022-08-12T18:09:32.246Z,101378.41
2022-08-12T18:12:24.543Z,101381.19
2022-08-12T18:15:08.845Z,101380.00
2022-08-12T18:17:39.673Z,101382.63
2022-08-12T18:20:15.730Z,101382.91
2022-08-12T18:22:45.081Z,101386.41
2022-08-12T18:26:12.212Z,101386.31
2022-08-12T18:28:28.994Z,101388.03
2022-08-12T18:31:03.210Z,101386.72
2022-08-12T18:33:41.690Z,101384.78
2022-08-12T18:36:13.887Z,101391.81
2022-08-12T18:38:44.976Z,101391.31
2022-08-12T18:41:30.640Z,101383.94
2022-08-12T18:44:09.807Z,101391.97
2022-08-12T18:46:59.585Z,101388.56
2022-08-12T18:49:39.377Z,101392.69
2022-08-12T18:52:08.687Z,101389.72
2022-08-12T18:54:54.048Z,101397.59
2022-08-12T18:58:07.235Z,101398.09
2022-08-12T19:00:22.159Z,101400.44
2022-08-12T19:02:53.400Z,101396.91
2022-08-12T19:05:23.358Z,101397.19
2022-08-12T19:08:11.343Z,101401.38
2022-08-12T19:10:42.990Z,101408.16
2022-08-12T19:13:39.117Z,101403.16
2022-08-12T19:16:12.467Z,101407.78
2022-08-12T19:18:45.033Z,101406.19
2022-08-12T19:21:15.917Z,101414.91
2022-08-12T19:24:05.082Z,101412.81
2022-08-12T19:26:35.781Z,101406.78
2022-08-12T19:29:05.280Z,101417.50
2022-08-12T19:31:56.593Z,101417.78
2022-08-12T19:34:56.342Z,101408.91
2022-08-12T19:38:02.737Z,101417.09
2022-08-12T19:40:31.524Z,101423.59
2022-08-12T19:43:18.922Z,101420.38
2022-08-12T19:45:56.231Z,101421.09
2022-08-12T19:48:30.513Z,101410.88
2022-08-12T19:51:09.225Z,101422.16
2022-08-12T19:53:57.892Z,101421.84
2022-08-12T19:56:28.086Z,101425.72
2022-08-12T19:59:19.227Z,101425.50
2022-08-12T20:02:01.548Z,101425.56
2022-08-12T20:04:38.834Z,101425.78
2022-08-12T20:07:23.393Z,101424.66
2022-08-12T20:09:53.767Z,101426.91
2022-08-12T20:12:30.923Z,101432.84
2022-08-12T20:15:05.202Z,101429.34
2022-08-12T20:17:36.509Z,101435.09
2022-08-12T20:20:21.129Z,101428.44
2022-08-12T20:22:54.856Z,101429.69
2022-08-12T20:25:28.252Z,101435.81
2022-08-12T20:28:09.671Z,101436.75
2022-08-12T20:30:53.401Z,101432.97
2022-08-12T20:33:32.809Z,101435.53
2022-08-12T20:36:41.077Z,101434.66
2022-08-12T20:39:06.033Z,101431.47
2022-08-12T20:41:58.592Z,101436.41
2022-08-12T20:44:26.752Z,101434.72
2022-08-12T20:46:56.044Z,101437.75
2022-08-12T20:49:25.433Z,101438.00
2022-08-12T20:51:57.993Z,101440.78
2022-08-12T20:54:32.789Z,101440.91
2022-08-12T20:57:08.791Z,101434.22
2022-08-12T20:59:41.906Z,101440.47
2022-08-12T21:02:15.368Z,101443.34
2022-08-12T21:05:00.910Z,101434.16
2022-08-12T21:07:28.967Z,101439.03
2022-08-12T21:10:03.433Z,101433.22
2022-08-12T21:12:34.288Z,101432.66
2022-08-12T21:15:23.305Z,101437.56
2022-08-12T21:18:09.705Z,101438.72
2022-08-12T21:20:52.753Z,101438.41
2022-08-12T21:23:25.402Z,101433.63
2022-08-12T21:26:01.209Z,101432.97
2022-08-12T21:28:31.178Z,101438.28
2022-08-12T21:32:35.963Z,101435.75
2022-08-12T21:34:07.855Z,101441.19
2022-08-12T21:36:40.026Z,101439.50
2022-08-12T21:39:21.036Z,101444.94
2022-08-12T21:41:55.171Z,101434.13
2022-08-12T21:45:44.271Z,101433.22
2022-08-12T21:47:22.310Z,101434.31
2022-08-12T21:50:02.957Z,101437.03
2022-08-12T21:52:41.066Z,101435.47
2022-08-12T21:55:18.196Z,101434.00
2022-08-12T21:57:54.962Z,101437.53
2022-08-12T22:00:35.089Z,101433.03
2022-08-12T22:04:03.089Z,101428.72
2022-08-12T22:06:30.764Z,101429.06
2022-08-12T22:09:16.247Z,101446.41
2022-08-12T22:11:56.311Z,101440.94
2022-08-12T22:14:28.912Z,101443.78
2022-08-12T22:16:57.524Z,101450.97
2022-08-12T22:19:24.929Z,101448.41
2022-08-12T22:21:56.194Z,101436.94
2022-08-12T22:24:30.024Z,101440.72
2022-08-12T22:27:14.499Z,101437.34
2022-08-12T22:30:16.850Z,101446.72
2022-08-12T22:32:51.493Z,101435.31
2022-08-12T22:35:56.393Z,101441.13
2022-08-12T22:38:25.110Z,101438.53
2022-08-12T22:41:00.731Z,101444.03
2022-08-12T22:44:00.469Z,101435.22
2022-08-12T22:46:52.677Z,101436.38
2022-08-12T22:49:36.899Z,101429.00
2022-08-12T22:52:18.527Z,101431.59
2022-08-12T22:55:03.375Z,101431.09
2022-08-12T22:57:54.010Z,101435.50
2022-08-12T23:00:24.035Z,101432.66
2022-08-12T23:02:51.992Z,101434.38
2022-08-12T23:05:57.680Z,101431.78
2022-08-12T23:08:13.923Z,101432.25
2022-08-12T23:10:46.454Z,101436.69
2022-08-12T23:13:43.776Z,101426.78
2022-08-12T23:16:28.031Z,101432.00
2022-08-12T23:19:01.588Z,101431.97
2022-08-12T23:22:04.197Z,101432.94
2022-08-12T23:24:26.867Z,101434.78
2022-08-12T23:27:13.040Z,101433.03
2022-08-12T23:29:43.778Z,101434.88
2022-08-12T23:32:36.352Z,101438.72
2022-08-12T23:35:07.122Z,101449.22
2022-08-12T23:37:47.327Z,101428.03
2022-08-12T23:40:22.387Z,101428.03
2022-08-12T23:42:54.908Z,101430.66
2022-08-12T23:45:30.921Z,101435.53
2022-08-12T23:48:01.280Z,101433.78
2022-08-12T23:50:33.747Z,101424.84
2022-08-12T23:53:06.638Z,101431.31
2022-08-12T23:55:49.909Z,101429.59
2022-08-12T23:58:23.301Z,101435.03
